Time;durP1;ratioP1;P1;durP2;ratioP2;P2;SDS_P1;SDS_P2;PMS_P1;PMS_P2;Temp;Humidity;BMP_temperature;BMP_pressure;BME280_temperature;BME280_humidity;BME280_pressure;Samples;Min_cycle;Max_cycle;Signal;HPM_P1;HPM_P2
2021/04/04 00:00:52;;;;;;;12.15;4.85;;;;;;;3.81;50.95;97242.19;4901979;29;20125;-90
2021/04/04 00:03:19;;;;;;;10.27;4.65;;;;;;;3.78;51.11;97243.22;4901457;29;20422;-89
2021/04/04 00:05:46;;;;;;;8.93;4.00;;;;;;;3.78;51.30;97245.00;4901429;29;20071;-91
2021/04/04 00:08:13;;;;;;;9.63;4.32;;;;;;;3.75;50.95;97238.34;4901468;29;20053;-90
2021/04/04 00:10:39;;;;;;;7.82;4.35;;;;;;;3.75;51.05;97238.34;4900899;29;20052;-87
2021/04/04 00:13:06;;;;;;;6.70;3.65;;;;;;;3.69;51.42;97236.25;4900967;29;20051;-82
2021/04/04 00:15:33;;;;;;;9.90;3.50;;;;;;;3.70;51.42;97240.47;4900831;29;20503;-83
2021/04/04 00:17:59;;;;;;;7.40;3.78;;;;;;;3.71;52.53;97232.59;4901189;29;20057;-89
2021/04/04 00:20:26;;;;;;;6.78;3.90;;;;;;;3.76;51.54;97239.16;4901712;29;20048;-89
2021/04/04 00:22:54;;;;;;;7.38;3.40;;;;;;;3.77;51.49;97238.22;4900582;29;20053;-90
2021/04/04 00:25:20;;;;;;;8.82;3.28;;;;;;;3.79;51.39;97244.06;4901285;29;20467;-87
2021/04/04 00:27:47;;;;;;;6.53;3.50;;;;;;;3.77;51.10;97240.78;4902009;29;20063;-89
2021/04/04 00:30:16;;;;;;;7.70;3.55;;;;;;;3.73;51.04;97240.22;4901843;29;20067;-89
2021/04/04 00:32:42;;;;;;;5.55;3.42;;;;;;;3.65;51.17;97238.25;4900557;29;20049;-90
2021/04/04 00:35:11;;;;;;;10.73;3.38;;;;;;;3.61;51.90;97239.44;4899671;29;20052;-85
2021/04/04 00:37:38;;;;;;;9.48;3.45;;;;;;;3.58;51.36;97237.09;4900086;29;20107;-90
2021/04/04 00:40:10;;;;;;;10.23;3.50;;;;;;;3.54;51.60;97235.69;4899345;29;20065;-80
2021/04/04 00:42:37;;;;;;;5.05;3.10;;;;;;;3.49;51.13;97233.47;4899821;29;20059;-82
2021/04/04 00:45:08;;;;;;;5.68;3.75;;;;;;;3.45;51.35;97242.41;4899237;29;20061;-88
2021/04/04 00:47:35;;;;;;;10.15;3.53;;;;;;;3.39;51.50;97236.91;4899829;29;20063;-89
2021/04/04 00:50:02;;;;;;;5.75;2.92;;;;;;;3.34;51.69;97239.84;4902658;29;20064;-87
2021/04/04 00:52:28;;;;;;;5.90;2.92;;;;;;;3.29;51.90;97231.66;4903106;29;20051;-84
2021/04/04 00:54:55;;;;;;;6.68;3.38;;;;;;;3.25;51.92;97225.13;4902901;29;20476;-85
2021/04/04 00:57:23;;;;;;;9.02;4.68;;;;;;;3.22;52.41;97236.50;4902702;29;20496;-86
2021/04/04 00:59:49;;;;;;;10.65;4.88;;;;;;;3.24;52.92;97229.47;4902749;29;20048;-86
2021/04/04 01:02:16;;;;;;;11.57;5.05;;;;;;;3.26;52.44;97217.25;4903002;29;20045;-83
2021/04/04 01:04:45;;;;;;;8.57;4.05;;;;;;;3.28;52.44;97222.31;4902816;29;20056;-89
2021/04/04 01:07:12;;;;;;;7.18;3.90;;;;;;;3.23;52.21;97217.50;4902263;29;20063;-85
2021/04/04 01:09:39;;;;;;;6.95;3.97;;;;;;;3.20;52.50;97220.31;4902619;29;20060;-91
2021/04/04 01:12:11;;;;;;;8.48;4.43;;;;;;;3.16;52.78;97211.19;4903526;29;20052;-90
2021/04/04 01:14:46;;;;;;;9.93;3.40;;;;;;;3.09;52.76;97215.19;4907862;29;20157;-84
2021/04/04 01:17:15;;;;;;;7.57;3.70;;;;;;;3.05;53.04;97211.22;4901192;29;20057;-82
2021/04/04 01:19:57;;;;;;;6.10;3.47;;;;;;;3.05;53.38;97203.47;4900557;29;20053;-85
2021/04/04 01:22:46;;;;;;;8.18;3.42;;;;;;;3.07;53.60;97206.75;4900154;29;20049;-83
2021/04/04 01:25:20;;;;;;;7.75;3.13;;;;;;;3.07;53.66;97207.56;4899760;29;20057;-85
2021/04/04 01:27:52;;;;;;;6.75;3.25;;;;;;;3.13;54.17;97210.59;4899963;29;20492;-83
2021/04/04 01:30:21;;;;;;;9.23;4.20;;;;;;;3.15;53.69;97206.97;4899885;29;20056;-83
2021/04/04 01:32:49;;;;;;;10.45;3.70;;;;;;;3.20;53.50;97201.47;4899630;29;20049;-83
2021/04/04 01:35:18;;;;;;;6.65;3.20;;;;;;;3.21;53.26;97206.47;4899766;29;20049;-82
2021/04/04 01:37:48;;;;;;;8.13;4.15;;;;;;;3.18;53.08;97201.56;4899625;29;20063;-84
2021/04/04 01:40:17;;;;;;;7.63;3.08;;;;;;;3.16;53.37;97206.03;4900628;29;20056;-83
2021/04/04 01:42:45;;;;;;;5.30;2.63;;;;;;;3.15;53.12;97209.56;4899853;29;20052;-84
2021/04/04 01:45:14;;;;;;;6.45;3.13;;;;;;;3.12;52.95;97214.13;4899955;29;20060;-84
2021/04/04 01:47:41;;;;;;;8.52;2.97;;;;;;;3.05;53.58;97209.44;4899581;29;20416;-82
2021/04/04 01:50:11;;;;;;;8.95;3.67;;;;;;;3.05;53.47;97211.22;4899583;29;20276;-86
2021/04/04 01:52:39;;;;;;;10.23;4.35;;;;;;;3.06;53.48;97210.25;4899479;29;20058;-83
2021/04/04 01:55:07;;;;;;;6.38;3.42;;;;;;;3.06;53.66;97215.41;4899622;29;20122;-83
2021/04/04 01:57:35;;;;;;;5.28;3.22;;;;;;;3.00;53.77;97213.34;4899764;29;20056;-83
2021/04/04 02:00:06;;;;;;;8.48;3.22;;;;;;;2.99;54.27;97211.69;4898955;29;20052;-83
2021/04/04 02:02:34;;;;;;;6.60;3.33;;;;;;;3.02;53.92;97212.28;4899824;29;20131;-82
2021/04/04 02:05:04;;;;;;;5.75;2.60;;;;;;;3.01;53.73;97212.38;4899616;29;20056;-83
2021/04/04 02:07:32;;;;;;;7.20;2.90;;;;;;;2.99;53.88;97211.69;4899697;29;20052;-82
2021/04/04 02:09:59;;;;;;;5.82;2.78;;;;;;;2.99;53.93;97203.94;4899956;29;20077;-85
2021/04/04 02:12:26;;;;;;;6.60;3.13;;;;;;;3.02;53.74;97208.88;4899759;29;20055;-83
2021/04/04 02:14:53;;;;;;;7.75;3.38;;;;;;;2.99;53.73;97206.53;4899223;29;20075;-82
2021/04/04 02:17:20;;;;;;;5.93;3.22;;;;;;;2.97;53.92;97200.66;4899649;29;20053;-83
2021/04/04 02:19:48;;;;;;;7.80;2.55;;;;;;;2.96;53.74;97199.03;4899291;29;20598;-82
2021/04/04 02:22:16;;;;;;;18.20;4.10;;;;;;;2.98;53.95;97197.16;4899627;29;20075;-83
2021/04/04 02:24:45;;;;;;;6.20;3.17;;;;;;;3.03;54.14;97197.63;4898972;29;20076;-84
2021/04/04 02:27:12;;;;;;;6.55;2.90;;;;;;;3.06;53.86;97195.63;4899367;29;20063;-84
2021/04/04 02:29:39;;;;;;;5.22;3.30;;;;;;;3.08;53.59;97203.22;4899356;29;20424;-81
2021/04/04 02:32:08;;;;;;;8.90;3.00;;;;;;;3.03;53.86;97195.84;4899625;29;20056;-82
2021/04/04 02:34:39;;;;;;;7.57;3.97;;;;;;;3.01;54.16;97190.00;4898769;29;20045;-83
2021/04/04 02:37:11;;;;;;;8.02;4.32;;;;;;;2.96;54.23;97191.31;4899539;29;20048;-83
2021/04/04 02:39:45;;;;;;;7.32;4.15;;;;;;;2.87;54.34;97185.13;4899616;29;20052;-87
2021/04/04 02:42:16;;;;;;;5.78;3.38;;;;;;;2.83;54.62;97188.88;4899524;29;20064;-82
2021/04/04 02:44:44;;;;;;;5.80;3.42;;;;;;;2.79;54.28;97183.13;4899061;29;20056;-89
2021/04/04 02:47:13;;;;;;;8.85;4.13;;;;;;;2.77;54.58;97185.00;4899588;29;20052;-84
2021/04/04 02:49:45;;;;;;;8.65;4.80;;;;;;;2.85;55.27;97185.22;4899626;29;20060;-82
2021/04/04 02:52:19;;;;;;;7.88;4.45;;;;;;;2.91;54.71;97190.84;4985239;23;20039;-80
2021/04/04 05:24:36;;;;;;;8.63;4.68;;;;;;;1.89;58.36;97172.78;4279018;27;20048;-79
2021/04/04 05:27:05;;;;;;;11.60;5.23;;;;;;;1.88;58.25;97166.00;4924548;29;20138;-81
2021/04/04 05:29:33;;;;;;;8.32;3.90;;;;;;;1.90;58.44;97171.81;4924156;29;20089;-79
2021/04/04 05:32:03;;;;;;;7.45;4.75;;;;;;;1.94;58.36;97170.66;4924047;29;20036;-80
2021/04/04 05:34:30;;;;;;;7.00;4.50;;;;;;;1.96;58.25;97163.66;4897866;23;20462;-89
2021/04/04 05:37:01;;;;;;;9.93;4.60;;;;;;;1.99;58.72;97170.31;4883214;29;20059;-91
2021/04/04 05:39:30;;;;;;;8.63;4.35;;;;;;;2.01;58.33;97169.28;4883216;29;20057;-84
2021/04/04 05:42:00;;;;;;;7.45;4.68;;;;;;;2.04;58.48;97173.38;4883284;29;20049;-84
2021/04/04 05:44:33;;;;;;;7.07;4.22;;;;;;;2.07;58.29;97165.44;4883896;29;20049;-90
2021/04/04 05:47:03;;;;;;;8.13;4.00;;;;;;;2.15;58.70;97172.59;4883600;29;20049;-88
2021/04/04 05:49:38;;;;;;;8.48;4.95;;;;;;;2.20;58.65;97163.56;4883398;29;20055;-86
2021/04/04 05:52:11;;;;;;;12.60;5.00;;;;;;;2.19;57.99;97161.13;4883354;29;20065;-83
2021/04/04 05:55:01;;;;;;;13.15;6.13;;;;;;;2.13;58.36;97174.47;4883321;29;20049;-84
2021/04/04 05:57:34;;;;;;;9.23;5.85;;;;;;;2.09;58.38;97180.75;4883383;29;20057;-88
2021/04/04 06:00:05;;;;;;;12.77;6.50;;;;;;;2.09;58.29;97175.63;4883240;29;20530;-87
2021/04/04 06:03:00;;;;;;;8.50;5.07;;;;;;;2.09;58.44;97173.03;4884159;29;20053;-85
2021/04/04 06:05:56;;;;;;;11.38;6.40;;;;;;;2.08;58.27;97166.25;4895944;29;20053;-86
2021/04/04 06:08:38;;;;;;;10.57;5.97;;;;;;;2.07;58.82;97162.84;4862470;29;20048;-85
2021/04/04 06:11:15;;;;;;;10.38;6.10;;;;;;;2.08;58.83;97164.50;4900738;29;20073;-86
2021/04/04 06:13:57;;;;;;;8.65;6.25;;;;;;;2.10;59.33;97169.53;4901008;29;20096;-85
2021/04/04 06:16:42;;;;;;;12.73;5.38;;;;;;;2.15;59.31;97172.59;4903981;29;20037;-89
2021/04/04 06:19:22;;;;;;;11.73;6.93;;;;;;;2.19;58.76;97163.72;4904404;29;20037;-90
2021/04/04 06:22:08;;;;;;;11.68;5.90;;;;;;;2.23;59.11;97159.94;4903963;29;20060;-89
2021/04/04 06:24:52;;;;;;;8.85;5.13;;;;;;;2.31;59.61;97165.34;4933780;23;20047;-89
2021/04/04 06:27:27;;;;;;;;;;;;;;;2.42;59.88;97169.66;4903556;29;20100;-86
2021/04/04 06:30:46;;;;;;;11.20;5.13;;;;;;;2.44;60.09;97163.47;4903103;29;19907;-87
2021/04/04 06:33:30;;;;;;;8.85;5.47;;;;;;;2.51;60.29;97163.00;4902091;29;20053;-84
2021/04/04 06:36:28;;;;;;;8.45;4.82;;;;;;;2.54;60.40;97168.75;4902087;29;20075;-90
2021/04/04 06:39:32;;;;;;;7.65;5.00;;;;;;;2.58;59.99;97166.75;4899578;29;20086;-86
2021/04/04 06:42:32;;;;;;;8.55;4.63;;;;;;;2.65;60.29;97163.59;4889363;29;20467;-84
2021/04/04 06:49:33;;;;;;;12.65;5.85;;;;;;;2.83;60.23;97155.38;4899944;29;20108;-82
2021/04/04 06:52:50;;;;;;;11.48;5.85;;;;;;;2.96;59.54;97157.81;4899112;29;20085;-85
2021/04/04 06:55:55;;;;;;;9.82;5.38;;;;;;;3.08;59.21;97157.66;4899854;29;20053;-86
2021/04/04 06:58:59;;;;;;;9.68;5.13;;;;;;;3.23;59.74;97155.63;4900804;29;20101;-90
2021/04/04 07:05:01;;;;;;;9.75;4.93;;;;;;;3.47;59.65;97158.00;4898796;29;20112;-90
2021/04/04 07:08:06;;;;;;;10.40;5.25;;;;;;;3.62;59.26;97160.28;4895543;29;20531;-89
2021/04/04 07:10:55;;;;;;;8.88;5.15;;;;;;;3.75;59.23;97160.91;4897329;29;20061;-90
2021/04/04 07:13:43;;;;;;;;;;;;;;;3.90;59.45;97158.84;4881133;29;20057;-89
2021/04/04 07:16:58;;;;;;;10.02;5.75;;;;;;;4.05;58.57;97167.91;4880961;29;19912;-90
2021/04/04 07:20:18;;;;;;;10.70;5.85;;;;;;;4.23;58.96;97159.59;4855106;29;20112;-88
2021/04/04 07:23:08;;;;;;;9.27;6.45;;;;;;;4.39;58.52;97164.28;4879597;29;20053;-90
2021/04/04 07:25:40;;;;;;;9.50;6.07;;;;;;;4.56;57.85;97160.28;4894223;29;20305;-90
2021/04/04 07:28:41;;;;;;;9.63;5.57;;;;;;;4.77;57.57;97165.38;4899800;29;20044;-85
2021/04/04 07:31:17;;;;;;;10.20;6.15;;;;;;;4.99;57.03;97166.94;4890119;29;20065;-87
2021/04/04 07:33:53;;;;;;;15.23;6.30;;;;;;;5.11;56.60;97171.03;4887461;29;20060;-87
2021/04/04 07:36:31;;;;;;;8.80;5.55;;;;;;;5.25;56.79;97181.00;4887200;29;20148;-87
2021/04/04 07:39:03;;;;;;;10.27;6.43;;;;;;;5.38;56.58;97167.81;4886800;29;20055;-91
2021/04/04 07:41:37;;;;;;;13.70;6.50;;;;;;;5.50;55.90;97164.13;4886883;29;20045;-86
2021/04/04 07:44:18;;;;;;;11.65;5.93;;;;;;;5.66;55.62;97167.94;4888273;29;20049;-90
2021/04/04 07:46:50;;;;;;;12.43;5.70;;;;;;;5.81;55.29;97170.94;4887344;29;20583;-85
2021/04/04 07:49:41;;;;;;;9.50;6.10;;;;;;;5.95;55.00;97170.56;4888409;29;20052;-89
2021/04/04 07:52:22;;;;;;;12.38;6.25;;;;;;;6.07;54.77;97171.22;4893964;29;20083;-88
2021/04/04 07:55:00;;;;;;;10.25;6.20;;;;;;;6.20;54.22;97176.91;4894168;29;20431;-88
2021/04/04 07:57:34;;;;;;;12.75;6.03;;;;;;;6.32;54.01;97174.97;4894313;29;20061;-86
2021/04/04 08:00:06;;;;;;;14.50;6.50;;;;;;;6.47;54.05;97165.81;4900375;29;20052;-84
2021/04/04 08:02:41;;;;;;;10.82;6.93;;;;;;;6.66;53.84;97161.50;4896505;29;20059;-84
2021/04/04 08:05:10;;;;;;;9.13;5.50;;;;;;;6.80;53.45;97168.81;4896226;29;20063;-88
2021/04/04 08:11:32;;;;;;;10.70;5.65;;;;;;;6.96;52.33;97170.75;4896432;29;20052;-83
2021/04/04 08:14:05;;;;;;;11.65;6.13;;;;;;;6.98;52.48;97167.06;4898389;29;20176;-86
2021/04/04 08:27:59;;;;;;;10.85;6.35;;;;;;;7.65;51.41;97166.72;4728311;30;20067;-83
2021/04/04 08:30:32;;;;;;;20.92;6.50;;;;;;;7.81;50.83;97166.88;4730961;30;20064;-84
2021/04/04 08:33:07;;;;;;;12.20;6.90;;;;;;;7.96;50.49;97166.31;4747040;30;20056;-84
2021/04/04 08:35:38;;;;;;;12.05;6.72;;;;;;;8.16;50.96;97162.59;4832438;29;20093;-84
2021/04/04 08:38:09;;;;;;;17.63;7.63;;;;;;;8.43;50.72;97160.81;4849100;29;20069;-89
2021/04/04 08:40:42;;;;;;;14.57;6.85;;;;;;;8.70;49.63;97159.81;4849282;29;20069;-85
2021/04/04 08:46:32;;;;;;;9.10;5.80;;;;;;;9.74;47.71;97169.00;4838199;29;20034;-85
2021/04/04 08:49:04;;;;;;;8.05;4.55;;;;;;;10.44;46.35;97152.03;4849693;29;20101;-83
2021/04/04 08:51:39;;;;;;;8.43;5.18;;;;;;;11.03;44.32;97157.69;4849666;29;20126;-88
2021/04/04 08:54:14;;;;;;;7.55;4.47;;;;;;;11.46;43.73;97163.31;4846459;29;20271;-86
2021/04/04 08:56:43;;;;;;;5.75;3.50;;;;;;;11.78;41.85;97156.22;4847184;29;20123;-90
2021/04/04 08:59:17;;;;;;;7.25;3.75;;;;;;;11.93;42.62;97157.09;4847691;29;20058;-85
2021/04/04 09:01:48;;;;;;;6.85;3.97;;;;;;;12.08;42.39;97156.34;4899552;29;20037;-85
2021/04/04 09:04:17;;;;;;;6.85;3.70;;;;;;;12.18;41.13;97153.47;4902620;29;20053;-85
2021/04/04 09:06:46;;;;;;;9.68;4.28;;;;;;;12.30;41.03;97152.84;4897506;29;20055;-85
2021/04/04 09:09:20;;;;;;;6.18;3.58;;;;;;;12.50;40.19;97157.56;4893371;29;20049;-87
2021/04/04 09:11:53;;;;;;;4.25;3.33;;;;;;;12.70;37.87;97156.03;4894567;29;20499;-86
2021/04/04 09:14:23;;;;;;;4.35;2.65;;;;;;;12.86;37.39;97155.03;4905497;29;20089;-89
2021/04/04 09:16:55;;;;;;;4.25;2.53;;;;;;;13.00;36.29;97153.38;4901582;29;20049;-88
2021/04/04 09:19:29;;;;;;;6.00;3.05;;;;;;;13.15;35.88;97148.91;4902914;29;20532;-86
2021/04/04 09:21:58;;;;;;;4.38;2.88;;;;;;;13.28;36.41;97144.84;4905608;29;20088;-90
2021/04/04 09:24:26;;;;;;;3.88;2.60;;;;;;;13.42;35.96;97144.00;4901264;29;20057;-92
2021/04/04 09:26:55;;;;;;;4.95;2.67;;;;;;;13.58;35.04;97143.75;4896607;29;20052;-89
2021/04/04 09:29:24;;;;;;;3.35;2.40;;;;;;;13.71;34.40;97148.31;4896995;29;20057;-91
2021/04/04 09:31:58;;;;;;;6.10;2.03;;;;;;;13.81;33.69;97143.53;4896907;29;20064;-90
2021/04/04 09:34:27;;;;;;;3.97;2.33;;;;;;;13.95;33.03;97138.41;4895720;29;20113;-90
2021/04/04 09:36:55;;;;;;;3.78;2.50;;;;;;;14.10;34.22;97149.66;4895415;29;20057;-89
2021/04/04 09:39:25;;;;;;;3.88;1.90;;;;;;;14.25;33.26;97143.50;4894427;29;20057;-89
2021/04/04 09:41:54;;;;;;;4.38;2.30;;;;;;;14.38;31.50;97138.31;4895721;29;20060;-91
2021/04/04 09:44:30;;;;;;;3.53;1.95;;;;;;;14.51;31.27;97143.66;4894729;29;20049;-90
2021/04/04 09:47:07;;;;;;;6.30;2.15;;;;;;;14.66;30.57;97135.69;4895085;29;20097;-88
2021/04/04 09:49:42;;;;;;;6.90;2.30;;;;;;;14.72;31.72;97131.50;4895518;29;20077;-84
2021/04/04 09:52:18;;;;;;;2.60;1.95;;;;;;;14.86;31.79;97135.78;4891969;29;20108;-87
2021/04/04 09:54:56;;;;;;;6.88;2.42;;;;;;;14.88;30.47;97128.50;4884117;29;20053;-88
2021/04/04 09:57:23;;;;;;;3.60;2.28;;;;;;;14.83;31.26;97125.69;4892151;29;20067;-86
2021/04/04 09:59:50;;;;;;;3.72;2.08;;;;;;;14.76;30.46;97115.16;4891600;29;20444;-89
2021/04/04 10:02:31;;;;;;;5.38;2.45;;;;;;;14.61;30.32;97119.72;4892408;29;20120;-89
2021/04/04 10:04:57;;;;;;;2.97;1.88;;;;;;;14.62;31.65;97121.31;4891139;29;20059;-88
2021/04/04 10:07:28;;;;;;;5.07;2.17;;;;;;;14.71;30.61;97116.72;4891992;29;20048;-87
2021/04/04 10:09:55;;;;;;;8.23;2.03;;;;;;;14.62;30.67;97118.69;4891834;29;20140;-87
2021/04/04 10:12:22;;;;;;;2.38;1.88;;;;;;;14.55;30.21;97112.63;4891903;29;20419;-88
2021/04/04 10:15:03;;;;;;;2.67;2.40;;;;;;;14.47;29.58;97112.72;4892419;29;20049;-87
2021/04/04 10:17:30;;;;;;;4.28;2.55;;;;;;;14.39;30.42;97108.47;4892309;29;20431;-85
2021/04/04 10:19:59;;;;;;;4.93;2.90;;;;;;;14.31;30.66;97117.28;4890529;29;20060;-84
2021/04/04 10:22:26;;;;;;;4.60;2.15;;;;;;;14.38;30.90;97112.06;4890341;29;20053;-89
2021/04/04 10:24:53;;;;;;;2.53;2.13;;;;;;;14.43;30.76;97112.34;4890734;29;20052;-84
2021/04/04 10:27:24;;;;;;;6.20;2.92;;;;;;;14.44;30.34;97108.69;4890856;29;20058;-87
2021/04/04 10:30:13;;;;;;;4.88;2.10;;;;;;;14.37;30.40;97106.03;4891610;29;20064;-89
2021/04/04 10:32:41;;;;;;;4.70;2.75;;;;;;;14.26;30.78;97105.75;4891590;29;20052;-89
2021/04/04 10:35:19;;;;;;;4.22;2.47;;;;;;;14.14;30.78;97100.22;4890815;29;20405;-84
2021/04/04 10:40:53;;;;;;;3.65;2.20;;;;;;;14.22;32.13;97100.06;4883695;29;20057;-82
2021/04/04 10:43:39;;;;;;;5.15;2.25;;;;;;;14.34;32.17;97092.47;4889164;29;20056;-86
2021/04/04 10:46:09;;;;;;;5.13;2.55;;;;;;;14.43;31.12;97089.50;4891240;29;20057;-86
2021/04/04 10:48:39;;;;;;;3.33;2.72;;;;;;;14.50;30.77;97079.03;4892043;29;20444;-86
2021/04/04 10:51:11;;;;;;;5.93;3.28;;;;;;;14.56;30.14;97077.47;4890845;29;20049;-87
2021/04/04 10:53:49;;;;;;;7.55;2.50;;;;;;;14.52;29.74;97081.44;4896070;23;20071;-89
2021/04/04 10:56:19;;;;;;;4.35;2.05;;;;;;;14.50;30.42;97076.41;4894481;29;20052;-89
2021/04/04 10:58:48;;;;;;;5.03;2.30;;;;;;;14.60;30.05;97079.50;4893928;29;20068;-88
2021/04/04 11:01:16;;;;;;;5.28;2.58;;;;;;;14.69;30.07;97069.66;4893872;29;20052;-87
2021/04/04 11:03:51;;;;;;;6.45;2.70;;;;;;;14.90;29.96;97067.91;4892277;29;20053;-87
2021/04/04 11:06:18;;;;;;;10.18;3.53;;;;;;;15.10;30.89;97063.50;4892912;29;20057;-89
2021/04/04 11:08:45;;;;;;;5.43;2.80;;;;;;;15.29;29.63;97066.41;4893709;29;20056;-88
2021/04/04 11:11:15;;;;;;;6.65;3.15;;;;;;;15.42;29.62;97063.78;4895096;29;20084;-88
2021/04/04 11:13:46;;;;;;;4.55;2.70;;;;;;;15.61;28.93;97064.78;4894512;29;20120;-86
2021/04/04 11:16:17;;;;;;;6.13;3.03;;;;;;;15.70;29.01;97058.34;4892763;29;20078;-89
2021/04/04 11:18:48;;;;;;;5.20;2.33;;;;;;;15.69;28.75;97056.69;4893164;29;20121;-88
2021/04/04 11:21:21;;;;;;;4.20;2.60;;;;;;;15.61;28.52;97055.09;4892896;29;20060;-84
2021/04/04 11:23:53;;;;;;;5.45;2.65;;;;;;;15.49;28.75;97061.97;4891897;29;20064;-88
2021/04/04 11:26:29;;;;;;;4.70;2.40;;;;;;;15.35;28.57;97055.06;4891817;29;20053;-84
2021/04/04 11:29:23;;;;;;;3.50;2.30;;;;;;;15.21;28.32;97060.28;4892632;29;20109;-87
2021/04/04 11:31:56;;;;;;;6.28;2.67;;;;;;;15.07;28.70;97053.41;4877034;29;20072;-85
2021/04/04 11:34:38;;;;;;;4.85;2.33;;;;;;;14.95;28.89;97055.00;4893427;29;20077;-82
2021/04/04 11:37:27;;;;;;;4.35;2.40;;;;;;;14.83;29.21;97046.88;4892197;29;20144;-75
2021/04/04 11:40:15;;;;;;;5.65;2.50;;;;;;;14.77;30.05;97042.41;4881378;29;20044;-74
2021/04/04 11:42:43;;;;;;;5.60;2.80;;;;;;;14.83;29.94;97042.44;4881737;29;20060;-75
2021/04/04 11:45:34;;;;;;;3.53;2.40;;;;;;;15.00;30.33;97047.34;4893458;29;20033;-87
2021/04/04 11:48:31;;;;;;;3.35;2.33;;;;;;;15.18;29.12;97042.31;4902970;29;20037;-90
2021/04/04 11:51:43;;;;;;;3.13;2.25;;;;;;;15.24;29.40;97045.97;4897363;29;20053;-87
2021/04/04 11:54:51;;;;;;;5.10;2.30;;;;;;;15.36;29.37;97035.66;4895249;29;20132;-83
2021/04/04 12:00:46;;;;;;;3.30;1.98;;;;;;;15.56;28.98;97020.69;4896796;29;20116;-87
2021/04/04 12:03:28;;;;;;;4.15;2.47;;;;;;;15.69;27.90;97024.34;4897944;29;20113;-84
2021/04/04 12:06:01;;;;;;;4.30;2.45;;;;;;;15.68;28.22;97020.06;4896898;29;20083;-87
2021/04/04 12:08:43;;;;;;;4.07;2.88;;;;;;;15.69;27.63;97014.63;4893813;29;20060;-88
2021/04/04 12:11:22;;;;;;;6.55;2.00;;;;;;;15.69;28.50;97019.06;4892985;29;20056;-84
2021/04/04 12:14:03;;;;;;;3.38;2.45;;;;;;;15.70;27.68;97012.78;4890901;29;20057;-86
2021/04/04 12:17:12;;;;;;;3.17;2.08;;;;;;;15.57;28.04;97011.81;4890494;29;20112;-83
2021/04/04 12:20:00;;;;;;;4.32;1.60;;;;;;;15.56;28.44;97004.91;4890853;29;20064;-84
2021/04/04 12:23:02;;;;;;;4.43;2.45;;;;;;;15.55;28.04;97000.69;4893036;29;20068;-86
2021/04/04 12:26:01;;;;;;;3.00;2.63;;;;;;;15.54;27.89;96993.78;4894986;29;20096;-86
2021/04/04 12:28:33;;;;;;;3.67;2.47;;;;;;;15.53;28.21;96989.56;4897842;29;20061;-85
2021/04/04 12:31:14;;;;;;;5.60;2.03;;;;;;;15.55;27.97;96979.66;4898114;29;20056;-84
2021/04/04 12:33:50;;;;;;;4.65;2.33;;;;;;;15.58;27.73;96984.50;4894625;29;20080;-81
2021/04/04 12:36:31;;;;;;;3.70;1.63;;;;;;;15.60;28.09;96969.31;4890222;29;20140;-88
2021/04/04 12:39:00;;;;;;;3.83;2.28;;;;;;;15.61;27.63;96976.22;4889716;29;20076;-81
2021/04/04 12:41:27;;;;;;;3.83;2.00;;;;;;;15.55;27.81;96974.38;4886979;29;20116;-83
2021/04/04 12:43:54;;;;;;;9.10;2.67;;;;;;;15.58;28.18;96965.28;4888975;29;20061;-84
2021/04/04 12:46:37;;;;;;;2.97;2.00;;;;;;;15.63;28.23;96962.84;4890478;29;20045;-88
2021/04/04 12:49:04;;;;;;;5.03;2.10;;;;;;;15.64;28.04;96957.38;4890230;29;20460;-83
2021/04/04 12:51:31;;;;;;;3.88;2.05;;;;;;;15.58;28.19;96960.03;4888736;29;20560;-82
2021/04/04 12:53:59;;;;;;;3.45;2.20;;;;;;;15.57;27.73;96959.22;4889117;29;20131;-79
2021/04/04 12:56:42;;;;;;;5.70;2.13;;;;;;;15.59;27.34;96972.13;4888270;29;20045;-79
2021/04/04 12:59:18;;;;;;;5.18;2.38;;;;;;;15.56;27.47;96968.09;4888113;29;20057;-80
2021/04/04 13:01:46;;;;;;;4.82;2.60;;;;;;;15.48;27.51;96965.72;4887978;29;20095;-81
2021/04/04 13:04:17;;;;;;;2.65;1.77;;;;;;;15.44;27.20;96960.03;4887414;29;20059;-81
2021/04/04 13:06:45;;;;;;;3.97;2.28;;;;;;;15.39;26.93;96956.38;4888396;29;20053;-83
2021/04/04 13:09:18;;;;;;;3.00;1.77;;;;;;;15.34;26.86;96950.94;4888548;29;20063;-82
2021/04/04 13:11:48;;;;;;;3.50;1.98;;;;;;;15.32;27.44;96951.13;4891396;29;20053;-85
2021/04/04 13:14:26;;;;;;;5.60;1.77;;;;;;;15.36;27.80;96946.28;4889810;29;20500;-88
2021/04/04 13:17:00;;;;;;;2.10;1.40;;;;;;;15.40;27.76;96952.75;4889885;29;20055;-81
2021/04/04 13:19:28;;;;;;;2.95;2.03;;;;;;;15.28;27.29;96944.66;4890214;29;20109;-83
2021/04/04 13:21:58;;;;;;;2.63;1.70;;;;;;;15.09;28.13;96932.38;4888778;29;20060;-79
2021/04/04 13:24:29;;;;;;;5.05;2.30;;;;;;;15.00;28.40;96931.75;4888133;29;20420;-84
2021/04/04 13:26:56;;;;;;;3.63;1.98;;;;;;;14.99;28.73;96935.38;4887383;29;20064;-80
2021/04/04 13:29:36;;;;;;;4.38;2.35;;;;;;;15.04;28.11;96930.31;4887245;29;20056;-79
2021/04/04 13:32:05;;;;;;;3.08;1.90;;;;;;;14.95;28.06;96924.44;4888772;29;20137;-83
2021/04/04 13:34:37;;;;;;;2.65;1.77;;;;;;;14.98;28.83;96929.31;4887628;29;20060;-78
2021/04/04 13:37:04;;;;;;;3.08;1.65;;;;;;;15.07;28.59;96922.03;4888658;29;20528;-79
2021/04/04 13:39:36;;;;;;;11.60;2.95;;;;;;;15.16;27.93;96914.78;4887649;29;20069;-79
2021/04/04 13:42:04;;;;;;;4.28;2.45;;;;;;;15.21;27.72;96921.00;4889927;29;20049;-82
2021/04/04 13:44:48;;;;;;;5.55;2.55;;;;;;;15.21;27.91;96912.34;4893204;29;20105;-82
2021/04/04 13:47:20;;;;;;;5.88;1.98;;;;;;;15.16;27.20;96909.50;4893157;29;20057;-81
2021/04/04 13:49:47;;;;;;;5.67;2.00;;;;;;;15.17;27.17;96911.13;4892973;29;20522;-81
2021/04/04 13:52:16;;;;;;;4.40;1.92;;;;;;;15.22;26.96;96899.00;4893881;29;20806;-82
2021/04/04 13:54:47;;;;;;;6.43;2.47;;;;;;;15.19;27.42;96899.38;4893841;29;20052;-79
2021/04/04 13:57:14;;;;;;;3.97;2.15;;;;;;;15.17;27.33;96890.91;4893221;29;20629;-84
2021/04/04 13:59:48;;;;;;;3.45;1.88;;;;;;;15.18;28.50;96889.91;4894424;29;20101;-82
2021/04/04 14:02:18;;;;;;;4.93;2.17;;;;;;;15.25;27.82;96893.31;4892931;29;20117;-81
2021/04/04 14:04:45;;;;;;;3.30;1.63;;;;;;;15.33;28.24;96888.88;4892924;29;20057;-79
2021/04/04 14:07:14;;;;;;;3.65;1.55;;;;;;;15.38;28.67;96886.44;4891750;29;20332;-81
2021/04/04 14:09:42;;;;;;;4.78;2.13;;;;;;;15.44;28.46;96888.25;4892514;29;20049;-82
2021/04/04 14:12:11;;;;;;;2.88;2.08;;;;;;;15.41;28.07;96878.97;4892083;29;20051;-82
2021/04/04 14:14:39;;;;;;;3.60;2.20;;;;;;;15.33;27.81;96875.75;4891656;29;20056;-79
2021/04/04 14:17:08;;;;;;;3.72;1.88;;;;;;;15.27;27.97;96869.47;4891787;29;20509;-79
2021/04/04 14:19:35;;;;;;;3.60;1.95;;;;;;;15.22;28.14;96862.22;4892104;29;20059;-82
2021/04/04 14:22:05;;;;;;;3.72;2.40;;;;;;;15.17;27.90;96864.63;4891045;29;20066;-82
2021/04/04 14:24:32;;;;;;;7.53;2.60;;;;;;;15.09;28.17;96856.16;4889964;29;20492;-81
2021/04/04 14:27:01;;;;;;;6.40;2.47;;;;;;;15.05;28.59;96850.50;4890305;29;20045;-79
2021/04/04 14:29:28;;;;;;;4.82;1.95;;;;;;;15.02;27.97;96843.84;4890569;29;20463;-79
2021/04/04 14:31:55;;;;;;;3.83;2.20;;;;;;;14.96;28.37;96844.66;4884990;29;20140;-80
2021/04/04 14:34:23;;;;;;;2.13;1.60;;;;;;;14.87;28.62;96843.25;4887233;29;20053;-80
2021/04/04 14:36:50;;;;;;;2.83;2.10;;;;;;;14.83;28.86;96837.59;4889024;29;20113;-80
2021/04/04 14:39:18;;;;;;;3.70;1.90;;;;;;;14.79;28.57;96828.50;4889063;29;20113;-82
2021/04/04 14:41:45;;;;;;;3.58;2.17;;;;;;;14.80;29.14;96826.66;4890233;29;20055;-81
2021/04/04 14:44:15;;;;;;;3.95;1.80;;;;;;;14.78;29.33;96828.69;4887103;29;20061;-83
2021/04/04 14:46:42;;;;;;;4.55;2.08;;;;;;;14.76;29.35;96826.28;4892356;29;20051;-83
2021/04/04 14:49:08;;;;;;;3.67;2.30;;;;;;;14.73;28.78;96826.66;4894971;29;20140;-84
2021/04/04 14:51:36;;;;;;;4.45;1.90;;;;;;;14.67;28.61;96817.00;4895518;29;20143;-83
2021/04/04 14:54:09;;;;;;;3.67;1.90;;;;;;;14.64;28.95;96809.50;4896307;29;20037;-82
2021/04/04 14:56:39;;;;;;;6.22;2.88;;;;;;;14.62;29.28;96809.69;4896570;29;20108;-84
2021/04/04 14:59:06;;;;;;;3.97;2.28;;;;;;;14.59;28.74;96814.56;4895741;29;20149;-82
2021/04/04 15:01:32;;;;;;;3.53;2.25;;;;;;;14.50;29.01;96805.25;4895346;29;20051;-82
2021/04/04 15:03:59;;;;;;;3.50;2.28;;;;;;;14.41;28.80;96802.81;4895279;29;20052;-78
2021/04/04 15:06:26;;;;;;;3.60;2.53;;;;;;;14.36;28.87;96804.41;4895009;29;20083;-83
2021/04/04 15:08:53;;;;;;;4.70;2.40;;;;;;;14.29;29.46;96798.34;4895060;29;20064;-82
2021/04/04 15:11:20;;;;;;;7.03;3.30;;;;;;;14.23;29.61;96794.69;4895152;29;20048;-84